Time;durP1;ratioP1;P1;durP2;ratioP2;P2;SDS_P1;SDS_P2;PMS_P1;PMS_P2;Temp;Humidity;BMP_temperature;BMP_pressure;BME280_temperature;BME280_humidity;BME280_pressure;Samples;Min_cycle;Max_cycle;Signal;HPM_P1;HPM_P2
2023/07/06 00:01:22;;;;;;;5.55;2.92;;;14.30;99.90;;;;;;5052393;28;20037;-56
2023/07/06 00:03:54;;;;;;;8.70;3.50;;;14.30;99.90;;;;;;5051193;28;20434;-58
2023/07/06 00:06:19;;;;;;;7.20;3.95;;;14.30;99.90;;;;;;5051918;28;20103;-58
2023/07/06 00:08:45;;;;;;;6.03;3.25;;;14.20;99.90;;;;;;5051836;28;20437;-56
2023/07/06 00:11:11;;;;;;;6.65;3.15;;;14.10;99.90;;;;;;5052114;28;20056;-58
2023/07/06 00:13:40;;;;;;;8.77;3.47;;;14.10;99.90;;;;;;5051792;28;20098;-57
2023/07/06 00:16:06;;;;;;;4.80;2.75;;;14.00;99.90;;;;;;5051915;28;20020;-53
2023/07/06 00:18:32;;;;;;;4.72;3.30;;;14.00;99.90;;;;;;5051743;28;20048;-54
2023/07/06 00:20:59;;;;;;;7.03;3.70;;;13.90;99.90;;;;;;5051926;28;20786;-54
2023/07/06 00:23:25;;;;;;;4.63;2.97;;;13.80;99.90;;;;;;5051442;28;20120;-57
2023/07/06 00:25:51;;;;;;;7.10;2.55;;;13.80;99.90;;;;;;5050341;28;20024;-59
2023/07/06 00:28:23;;;;;;;4.45;3.05;;;13.70;99.90;;;;;;5051212;28;20521;-56
2023/07/06 00:33:17;;;;;;;5.85;3.15;;;13.60;99.90;;;;;;5051276;28;20033;-56
2023/07/06 00:35:44;;;;;;;6.13;2.85;;;13.60;99.90;;;;;;5051272;28;20022;-56
2023/07/06 00:38:14;;;;;;;7.88;2.88;;;13.60;99.90;;;;;;5050872;28;20391;-58
2023/07/06 00:40:42;;;;;;;9.73;2.70;;;13.40;99.90;;;;;;5051272;28;20040;-58
2023/07/06 00:43:12;;;;;;;9.23;3.30;;;13.40;99.90;;;;;;5051243;28;20052;-56
2023/07/06 00:45:38;;;;;;;8.40;2.83;;;13.30;99.90;;;;;;5051106;28;20078;-56
2023/07/06 00:48:10;;;;;;;4.63;2.75;;;13.30;99.90;;;;;;5050872;28;20653;-59
2023/07/06 00:50:37;;;;;;;9.45;3.05;;;13.20;99.90;;;;;;5051130;28;20021;-59
2023/07/06 00:53:11;;;;;;;4.43;2.75;;;13.10;99.90;;;;;;5051020;28;20032;-59
2023/07/06 00:55:41;;;;;;;5.75;3.17;;;13.10;99.90;;;;;;5051129;28;20531;-58
2023/07/06 00:58:22;;;;;;;5.35;3.00;;;13.00;99.90;;;;;;5050780;28;20456;-58
2023/07/06 01:00:51;;;;;;;9.18;3.08;;;13.00;99.90;;;;;;5051022;28;20110;-57
2023/07/06 01:03:19;;;;;;;6.35;3.15;;;12.90;99.90;;;;;;5050967;28;20024;-57
2023/07/06 01:05:46;;;;;;;7.65;2.70;;;12.80;99.90;;;;;;5050937;28;20025;-56
2023/07/06 01:08:15;;;;;;;4.72;3.13;;;12.90;99.90;;;;;;5050790;28;20111;-58
2023/07/06 01:10:43;;;;;;;3.88;2.90;;;12.90;99.90;;;;;;5051012;28;20110;-53
2023/07/06 01:13:09;;;;;;;8.30;3.35;;;12.80;99.90;;;;;;5051016;28;20079;-56
2023/07/06 01:15:41;;;;;;;5.15;3.25;;;12.80;99.90;;;;;;5050986;28;20028;-56
2023/07/06 01:18:18;;;;;;;10.07;3.00;;;12.80;99.90;;;;;;5050059;28;20083;-57
2023/07/06 01:20:53;;;;;;;6.47;2.85;;;12.80;99.90;;;;;;5049602;28;20059;-58
2023/07/06 01:23:46;;;;;;;7.63;3.30;;;12.70;99.90;;;;;;5050782;28;20379;-56
2023/07/06 01:26:25;;;;;;;7.28;3.00;;;12.70;99.90;;;;;;5050673;28;20029;-57
2023/07/06 01:28:57;;;;;;;6.43;3.10;;;12.70;99.90;;;;;;5050683;28;20677;-57
2023/07/06 01:31:36;;;;;;;3.17;2.50;;;12.60;99.90;;;;;;5050791;28;20052;-59
2023/07/06 01:34:01;;;;;;;7.00;3.17;;;12.60;99.90;;;;;;5050614;28;20028;-59
2023/07/06 01:36:46;;;;;;;7.78;3.58;;;12.60;99.90;;;;;;5050504;28;20033;-57
2023/07/06 01:39:20;;;;;;;9.27;3.65;;;12.60;99.90;;;;;;5050413;28;20489;-57
2023/07/06 01:41:58;;;;;;;6.88;3.30;;;12.50;99.90;;;;;;5050619;28;20045;-56
2023/07/06 01:44:23;;;;;;;5.53;3.05;;;12.50;99.90;;;;;;5050483;28;20052;-59
2023/07/06 01:46:53;;;;;;;8.63;4.00;;;12.60;99.90;;;;;;5050569;28;20033;-56
2023/07/06 01:49:19;;;;;;;8.90;3.92;;;12.60;99.90;;;;;;5051602;28;20021;-57
2023/07/06 01:52:03;;;;;;;5.18;3.15;;;12.70;99.90;;;;;;5054262;28;20508;-57
2023/07/06 01:54:36;;;;;;;8.57;3.38;;;12.70;99.90;;;;;;5054027;28;20025;-56
2023/07/06 01:57:07;;;;;;;10.18;3.28;;;12.70;99.90;;;;;;5054066;28;20430;-54
2023/07/06 01:59:37;;;;;;;9.70;3.75;;;12.80;99.90;;;;;;5053890;28;20025;-53
2023/07/06 02:02:07;;;;;;;7.70;4.13;;;12.80;99.90;;;;;;5053984;28;20040;-58
2023/07/06 02:04:35;;;;;;;5.53;2.80;;;12.80;99.90;;;;;;5053765;28;20671;-52
2023/07/06 02:07:03;;;;;;;10.63;3.38;;;12.90;99.90;;;;;;5053677;28;20032;-59
2023/07/06 02:09:29;;;;;;;8.38;3.15;;;12.90;99.90;;;;;;5053511;28;20510;-58
2023/07/06 02:11:55;;;;;;;8.80;2.92;;;13.00;99.90;;;;;;5053789;28;20048;-59
2023/07/06 02:14:21;;;;;;;7.60;3.38;;;13.10;99.90;;;;;;5053613;28;20483;-51
2023/07/06 02:16:50;;;;;;;8.40;3.38;;;13.00;99.90;;;;;;5053628;28;20074;-58
2023/07/06 02:19:18;;;;;;;4.43;2.88;;;13.10;99.90;;;;;;5053422;28;20025;-60
2023/07/06 02:21:43;;;;;;;6.80;3.05;;;13.10;99.90;;;;;;5063532;28;20359;-56
2023/07/06 02:24:09;;;;;;;8.10;3.10;;;13.00;99.90;;;;;;5063839;28;20025;-57
2023/07/06 02:26:35;;;;;;;4.28;2.65;;;13.00;99.90;;;;;;5060447;28;20021;-58
2023/07/06 02:29:01;;;;;;;8.85;2.85;;;12.90;99.90;;;;;;5054462;28;20391;-57
2023/07/06 02:31:27;;;;;;;6.82;3.20;;;12.90;99.90;;;;;;5053390;28;20067;-59
2023/07/06 02:33:52;;;;;;;6.85;2.90;;;12.80;99.90;;;;;;5053300;28;20021;-60
2023/07/06 02:36:18;;;;;;;4.97;2.97;;;12.70;99.90;;;;;;5053202;28;20032;-55
2023/07/06 02:38:44;;;;;;;6.80;2.97;;;12.60;99.90;;;;;;5053146;28;20088;-55
2023/07/06 02:41:09;;;;;;;9.10;3.35;;;12.60;99.90;;;;;;5051754;28;20036;-56
2023/07/06 02:43:36;;;;;;;9.52;3.47;;;12.50;99.90;;;;;;5053124;28;20035;-59
2023/07/06 02:46:03;;;;;;;8.20;2.90;;;12.30;99.90;;;;;;5053190;28;20025;-57
2023/07/06 02:48:28;;;;;;;10.43;3.83;;;12.30;99.90;;;;;;5053024;28;20552;-55
2023/07/06 02:50:54;;;;;;;13.07;3.55;;;12.20;99.90;;;;;;5053004;28;20033;-56
2023/07/06 02:53:19;;;;;;;4.03;2.92;;;12.10;99.90;;;;;;5053144;28;20017;-57
2023/07/06 02:55:46;;;;;;;15.63;4.15;;;12.10;99.90;;;;;;5051559;28;20391;-58
2023/07/06 02:58:12;;;;;;;6.80;3.17;;;12.00;99.90;;;;;;5052659;28;20447;-58
2023/07/06 03:00:37;;;;;;;9.02;3.85;;;12.00;99.90;;;;;;5051712;28;20028;-56
2023/07/06 03:03:07;;;;;;;10.68;2.92;;;12.00;99.90;;;;;;5052765;28;20104;-57
2023/07/06 03:05:35;;;;;;;7.60;3.38;;;11.90;99.90;;;;;;5052576;28;20076;-58
2023/07/06 03:08:04;;;;;;;10.98;3.40;;;11.90;99.90;;;;;;5052407;28;20029;-59
2023/07/06 03:10:31;;;;;;;8.48;3.50;;;11.80;99.90;;;;;;5052649;28;20043;-60
2023/07/06 03:12:57;;;;;;;12.45;3.55;;;11.70;99.90;;;;;;5052673;28;20484;-58
2023/07/06 03:15:23;;;;;;;8.90;3.60;;;11.70;99.90;;;;;;5052285;28;20020;-56
2023/07/06 03:17:51;;;;;;;8.40;3.40;;;11.60;99.90;;;;;;5052242;28;20025;-56
2023/07/06 03:20:22;;;;;;;6.72;3.70;;;11.60;99.90;;;;;;5052373;28;20025;-54
2023/07/06 03:22:51;;;;;;;7.13;3.70;;;11.50;99.90;;;;;;5052517;28;20040;-57
2023/07/06 03:25:19;;;;;;;6.95;4.00;;;11.50;99.90;;;;;;5052713;28;20052;-53
2023/07/06 03:27:46;;;;;;;5.38;3.90;;;11.40;99.90;;;;;;5052088;28;20043;-55
2023/07/06 03:30:14;;;;;;;5.40;3.78;;;11.40;99.90;;;;;;5052233;28;20025;-53
2023/07/06 03:32:40;;;;;;;6.30;3.67;;;11.30;99.90;;;;;;5052247;28;20090;-53
2023/07/06 03:35:11;;;;;;;12.52;4.40;;;11.30;99.90;;;;;;5051993;28;20470;-58
2023/07/06 03:37:38;;;;;;;28.70;5.38;;;11.30;99.90;;;;;;5052138;28;20035;-56
2023/07/06 03:40:05;;;;;;;11.15;5.75;;;11.20;99.90;;;;;;5051988;28;20033;-54
2023/07/06 03:42:32;;;;;;;7.13;3.58;;;11.20;99.90;;;;;;5052057;28;20036;-56
2023/07/06 03:44:57;;;;;;;8.55;3.95;;;11.20;99.90;;;;;;5051878;28;20028;-57
2023/07/06 03:47:26;;;;;;;11.70;2.78;;;11.20;99.90;;;;;;5051590;28;20545;-54
2023/07/06 03:49:52;;;;;;;14.10;4.40;;;11.20;99.90;;;;;;5051937;28;20017;-55
2023/07/06 03:52:18;;;;;;;6.88;3.90;;;11.20;99.90;;;;;;5051903;28;20032;-57
2023/07/06 03:54:46;;;;;;;15.23;4.13;;;11.20;99.90;;;;;;5051830;28;20491;-57
2023/07/06 03:57:12;;;;;;;7.88;4.00;;;11.20;99.90;;;;;;5051663;28;20040;-56
2023/07/06 03:59:38;;;;;;;10.32;3.72;;;11.20;99.90;;;;;;5051642;28;20025;-58
2023/07/06 04:02:05;;;;;;;7.05;3.85;;;11.20;99.90;;;;;;5051670;28;20072;-57
2023/07/06 04:04:32;;;;;;;11.82;3.90;;;11.30;99.90;;;;;;5051602;28;20032;-57
2023/07/06 04:06:58;;;;;;;12.02;3.88;;;11.30;99.90;;;;;;5051575;28;20025;-59
2023/07/06 04:09:25;;;;;;;9.50;3.80;;;11.30;99.90;;;;;;5051461;28;20097;-55
2023/07/06 04:11:54;;;;;;;7.07;3.60;;;11.30;99.90;;;;;;5051275;28;20029;-56
2023/07/06 04:14:24;;;;;;;11.18;4.45;;;11.30;99.90;;;;;;5051325;28;20032;-56
2023/07/06 04:16:51;;;;;;;5.88;3.78;;;11.30;99.90;;;;;;5051567;28;20032;-53
2023/07/06 04:19:17;;;;;;;8.90;3.83;;;11.40;99.90;;;;;;5051241;28;20454;-57
2023/07/06 04:21:42;;;;;;;7.28;3.60;;;11.40;99.90;;;;;;5051366;28;20104;-56
2023/07/06 04:24:08;;;;;;;7.88;4.28;;;11.40;99.90;;;;;;5051230;28;20033;-56
2023/07/06 04:26:34;;;;;;;7.05;3.47;;;11.50;99.90;;;;;;5051145;28;20025;-57
2023/07/06 04:28:59;;;;;;;7.95;3.40;;;11.50;99.90;;;;;;5051137;28;20043;-52
2023/07/06 04:31:25;;;;;;;6.13;3.45;;;11.70;99.90;;;;;;5051416;28;20051;-57
2023/07/06 04:33:50;;;;;;;9.77;4.05;;;11.70;99.90;;;;;;5051389;28;20055;-58
2023/07/06 04:36:17;;;;;;;10.00;3.95;;;11.70;99.90;;;;;;5051157;28;20021;-58
2023/07/06 04:38:43;;;;;;;6.15;3.90;;;11.80;99.90;;;;;;5051151;28;20067;-57
2023/07/06 04:41:09;;;;;;;12.07;4.57;;;11.80;99.90;;;;;;5050982;28;20515;-56
2023/07/06 04:43:35;;;;;;;6.15;3.42;;;11.90;99.90;;;;;;5051097;28;20014;-57
2023/07/06 04:46:02;;;;;;;9.25;3.38;;;11.90;99.90;;;;;;5051062;28;20066;-56
2023/07/06 04:48:27;;;;;;;8.35;3.30;;;12.00;99.90;;;;;;5050888;28;20467;-60
2023/07/06 04:50:54;;;;;;;9.48;3.22;;;12.10;99.90;;;;;;5051225;28;20029;-58
2023/07/06 04:53:20;;;;;;;11.18;3.47;;;12.10;99.90;;;;;;5051125;28;20114;-56
2023/07/06 04:55:47;;;;;;;7.95;3.60;;;12.20;99.90;;;;;;5050907;28;20021;-56
2023/07/06 04:58:13;;;;;;;5.32;3.30;;;12.20;99.90;;;;;;5051007;28;20454;-55
2023/07/06 05:00:39;;;;;;;9.02;3.85;;;12.20;99.90;;;;;;5051119;28;20108;-56
2023/07/06 05:03:09;;;;;;;7.20;3.47;;;12.30;99.90;;;;;;5051272;28;20032;-60
2023/07/06 05:05:45;;;;;;;6.80;3.60;;;12.30;99.90;;;;;;5050963;28;20021;-59
2023/07/06 05:08:15;;;;;;;6.50;3.25;;;12.40;99.90;;;;;;5050660;28;20029;-58
2023/07/06 05:10:43;;;;;;;5.40;3.40;;;12.40;99.90;;;;;;5065539;28;20033;-58
2023/07/06 05:13:09;;;;;;;7.47;3.50;;;12.50;99.90;;;;;;5066771;28;20460;-58
2023/07/06 05:15:36;;;;;;;10.07;3.38;;;12.50;99.90;;;;;;5058972;28;20049;-58
2023/07/06 05:18:03;;;;;;;13.35;3.47;;;12.60;99.90;;;;;;5050659;28;20108;-59
2023/07/06 05:20:30;;;;;;;11.23;4.45;;;12.60;99.90;;;;;;5051439;28;20390;-57
2023/07/06 05:22:57;;;;;;;7.90;3.13;;;12.70;99.90;;;;;;5050940;28;20021;-58
2023/07/06 05:25:23;;;;;;;6.20;3.00;;;12.80;99.90;;;;;;5053680;28;20021;-60
2023/07/06 05:27:49;;;;;;;6.90;2.85;;;12.90;99.90;;;;;;5054282;28;20048;-60
2023/07/06 05:30:15;;;;;;;12.73;3.00;;;13.00;99.90;;;;;;5054402;28;20076;-58
2023/07/06 05:32:41;;;;;;;16.33;3.20;;;13.00;99.90;;;;;;5054533;28;20017;-59
2023/07/06 05:35:08;;;;;;;13.55;2.83;;;13.10;99.90;;;;;;5054283;28;20100;-57
2023/07/06 05:37:34;;;;;;;19.42;3.50;;;13.10;99.90;;;;;;5054329;28;20079;-57
2023/07/06 05:40:03;;;;;;;18.00;3.25;;;13.20;99.90;;;;;;5054328;28;20104;-57
2023/07/06 05:42:29;;;;;;;11.60;2.50;;;13.30;99.90;;;;;;5054333;28;20635;-56
2023/07/06 05:44:54;;;;;;;10.82;2.17;;;13.30;99.90;;;;;;5054093;28;20032;-59
2023/07/06 05:47:20;;;;;;;10.55;2.35;;;13.40;99.90;;;;;;5053945;28;20547;-55
2023/07/06 05:49:46;;;;;;;12.68;3.15;;;13.50;99.90;;;;;;5054051;28;20391;-57
2023/07/06 05:52:12;;;;;;;11.35;2.70;;;13.50;99.90;;;;;;5054199;28;20097;-58
2023/07/06 05:54:39;;;;;;;9.02;2.22;;;13.60;99.90;;;;;;5053970;28;20384;-58
2023/07/06 05:57:06;;;;;;;26.15;3.78;;;13.70;99.90;;;;;;5053979;28;20021;-60
2023/07/06 05:59:32;;;;;;;18.92;2.47;;;13.80;99.90;;;;;;5053698;28;20395;-56
2023/07/06 06:01:59;;;;;;;11.57;2.47;;;13.90;99.90;;;;;;5053901;28;20017;-56
2023/07/06 06:04:26;;;;;;;16.88;2.63;;;14.00;99.90;;;;;;5053638;28;20031;-59
2023/07/06 06:06:54;;;;;;;18.75;2.92;;;14.00;99.90;;;;;;5053735;28;20091;-55
2023/07/06 06:09:21;;;;;;;30.55;2.67;;;14.10;99.90;;;;;;5053692;28;20044;-56
2023/07/06 06:11:48;;;;;;;14.40;2.30;;;14.10;99.90;;;;;;5053821;28;20021;-53
2023/07/06 06:14:14;;;;;;;17.08;2.65;;;14.20;99.90;;;;;;5053676;28;20025;-53
2023/07/06 06:16:40;;;;;;;7.70;2.17;;;14.30;99.90;;;;;;5053652;28;20024;-58
2023/07/06 06:19:07;;;;;;;6.57;2.10;;;14.40;99.90;;;;;;5053284;28;20095;-55
2023/07/06 06:21:33;;;;;;;9.40;2.35;;;14.50;99.90;;;;;;5053641;28;20032;-58
2023/07/06 06:23:59;;;;;;;11.68;3.80;;;14.60;99.90;;;;;;5053485;28;20500;-55
2023/07/06 06:26:25;;;;;;;16.23;1.75;;;14.70;99.90;;;;;;5053366;28;20028;-55
2023/07/06 06:28:51;;;;;;;12.48;2.58;;;14.70;99.90;;;;;;5053256;28;20035;-56
2023/07/06 06:31:17;;;;;;;10.25;1.48;;;14.80;99.90;;;;;;5053358;28;20078;-58
2023/07/06 06:33:44;;;;;;;8.55;1.65;;;15.10;99.90;;;;;;5053090;28;20389;-60
2023/07/06 06:36:14;;;;;;;11.23;2.00;;;15.20;99.90;;;;;;5052872;28;20441;-57
2023/07/06 06:38:41;;;;;;;8.60;1.58;;;15.20;99.90;;;;;;5053015;28;20483;-57
2023/07/06 06:41:10;;;;;;;11.10;1.92;;;15.30;99.90;;;;;;5053130;28;20075;-58
2023/07/06 06:43:39;;;;;;;4.53;1.75;;;15.40;99.90;;;;;;5053043;28;20023;-57
2023/07/06 06:46:06;;;;;;;16.88;2.45;;;15.40;99.90;;;;;;5052898;28;20021;-55
2023/07/06 06:48:32;;;;;;;21.35;1.88;;;15.40;99.90;;;;;;5052814;28;20039;-55
2023/07/06 06:50:59;;;;;;;9.30;1.95;;;15.50;99.90;;;;;;5053037;28;20545;-56
2023/07/06 06:53:26;;;;;;;5.53;1.90;;;15.60;99.90;;;;;;5052779;28;20499;-53
2023/07/06 06:55:52;;;;;;;12.00;2.05;;;15.60;99.90;;;;;;5052932;28;20024;-59
2023/07/06 06:58:20;;;;;;;6.78;2.05;;;15.70;99.90;;;;;;5052272;28;20021;-60
2023/07/06 07:00:49;;;;;;;9.35;1.65;;;15.90;99.90;;;;;;5052476;28;20021;-56
2023/07/06 07:03:14;;;;;;;11.95;1.63;;;16.00;99.90;;;;;;5052741;28;20040;-53
2023/07/06 07:05:40;;;;;;;7.25;1.83;;;16.00;99.90;;;;;;5052612;28;20025;-58
2023/07/06 07:08:07;;;;;;;5.55;1.35;;;16.00;99.90;;;;;;5052287;28;20434;-58
2023/07/06 07:10:33;;;;;;;9.55;1.88;;;16.10;99.90;;;;;;5052625;28;20603;-55
2023/07/06 07:12:59;;;;;;;7.38;1.60;;;16.20;99.90;;;;;;5052628;28;20037;-56
2023/07/06 07:15:25;;;;;;;10.85;1.63;;;16.10;99.90;;;;;;5052268;28;20017;-58
2023/07/06 07:17:51;;;;;;;3.95;1.30;;;16.20;99.90;;;;;;5052326;28;20043;-56
2023/07/06 07:20:18;;;;;;;11.82;1.75;;;16.20;99.90;;;;;;5052395;28;20055;-58
2023/07/06 07:22:44;;;;;;;7.72;1.42;;;16.20;99.90;;;;;;5052543;28;20029;-57
2023/07/06 07:25:10;;;;;;;5.03;1.60;;;16.20;99.90;;;;;;5052214;28;20017;-53
2023/07/06 07:27:36;;;;;;;6.07;1.48;;;16.30;99.90;;;;;;5052030;28;20028;-56
2023/07/06 07:30:04;;;;;;;3.80;1.48;;;16.30;99.90;;;;;;5052082;28;20045;-53
2023/07/06 07:32:30;;;;;;;9.88;1.65;;;16.40;99.90;;;;;;5050900;28;20028;-58
2023/07/06 07:34:57;;;;;;;5.70;1.27;;;16.50;99.90;;;;;;5051997;28;20398;-59
2023/07/06 07:37:23;;;;;;;10.48;1.40;;;16.60;99.90;;;;;;5051869;28;20017;-55
2023/07/06 07:39:48;;;;;;;10.23;4.68;;;16.60;99.90;;;;;;5051858;28;20031;-56
2023/07/06 07:42:16;;;;;;;9.60;1.60;;;16.60;99.90;;;;;;5051941;28;20036;-53
2023/07/06 07:44:44;;;;;;;1.95;0.82;;;16.70;99.90;;;;;;5051905;28;20518;-54
2023/07/06 07:47:18;;;;;;;2.75;1.23;;;16.70;99.90;;;;;;5051376;28;20029;-53
2023/07/06 07:49:44;;;;;;;7.55;1.33;;;16.80;99.90;;;;;;5051953;28;20040;-54
2023/07/06 07:52:12;;;;;;;4.60;1.23;;;16.90;99.90;;;;;;5051796;28;20115;-58
2023/07/06 07:54:39;;;;;;;3.40;1.48;;;17.00;99.90;;;;;;5051670;28;20016;-59
2023/07/06 07:57:05;;;;;;;12.38;1.85;;;17.00;99.90;;;;;;5051626;28;20029;-57
2023/07/06 07:59:33;;;;;;;5.50;1.17;;;17.10;99.90;;;;;;5051436;28;20021;-58
2023/07/06 08:01:59;;;;;;;4.22;1.23;;;17.10;99.90;;;;;;5051779;28;20387;-56
2023/07/06 08:04:24;;;;;;;10.50;2.03;;;17.30;99.90;;;;;;5052283;28;20029;-58
2023/07/06 08:06:50;;;;;;;8.73;1.73;;;17.30;99.90;;;;;;5059142;28;20060;-60
2023/07/06 08:09:17;;;;;;;10.65;1.60;;;17.50;99.90;;;;;;5051498;28;20029;-61
2023/07/06 08:11:45;;;;;;;1.67;0.80;;;17.40;99.90;;;;;;5056046;28;20109;-60
2023/07/06 08:14:11;;;;;;;5.07;1.20;;;17.50;99.90;;;;;;5051632;28;20017;-59
2023/07/06 08:16:40;;;;;;;3.63;1.10;;;17.50;99.90;;;;;;5051517;28;20029;-56
2023/07/06 08:19:07;;;;;;;3.10;1.10;;;17.60;99.90;;;;;;5051285;28;20054;-57
2023/07/06 08:21:32;;;;;;;10.77;1.90;;;17.70;99.90;;;;;;5051483;28;20040;-59
2023/07/06 08:23:59;;;;;;;3.10;0.90;;;17.80;99.90;;;;;;5051211;28;20033;-57
2023/07/06 08:26:25;;;;;;;5.22;1.48;;;17.80;99.90;;;;;;5051088;28;20104;-57
2023/07/06 08:28:51;;;;;;;4.63;1.00;;;17.90;99.90;;;;;;5051172;28;20111;-60
2023/07/06 08:31:19;;;;;;;6.13;1.85;;;17.90;99.90;;;;;;5051286;28;20029;-58
2023/07/06 08:33:47;;;;;;;18.98;4.95;;;17.90;99.90;;;;;;5051211;28;20467;-60
2023/07/06 08:36:14;;;;;;;9.73;2.10;;;17.90;99.90;;;;;;5051076;28;20029;-60
2023/07/06 08:38:43;;;;;;;6.53;1.52;;;18.00;99.90;;;;;;5050930;28;20086;-60
2023/07/06 08:41:31;;;;;;;9.93;1.98;;;18.00;99.90;;;;;;5050914;28;20029;-54
2023/07/06 08:43:59;;;;;;;22.27;2.92;;;18.10;99.90;;;;;;5051191;28;20025;-57
2023/07/06 08:46:30;;;;;;;3.80;1.52;;;18.40;99.90;;;;;;5050919;28;20021;-56
2023/07/06 08:48:55;;;;;;;4.05;1.73;;;18.50;99.90;;;;;;5051102;28;20025;-59
2023/07/06 08:51:27;;;;;;;3.50;1.50;;;18.70;99.90;;;;;;5051008;28;20036;-56
2023/07/06 08:54:00;;;;;;;14.77;1.63;;;18.60;99.90;;;;;;5051020;28;20029;-60
2023/07/06 08:56:27;;;;;;;3.97;1.15;;;18.70;99.90;;;;;;5051019;28;20029;-58
2023/07/06 08:58:54;;;;;;;7.28;1.10;;;18.70;99.90;;;;;;5053073;28;20044;-59
2023/07/06 09:01:23;;;;;;;2.63;1.00;;;18.80;99.90;;;;;;5054955;28;20020;-60
2023/07/06 09:03:56;;;;;;;5.82;1.30;;;18.90;99.90;;;;;;5054865;28;20029;-58
2023/07/06 09:06:26;;;;;;;5.80;1.50;;;19.00;99.90;;;;;;5054828;28;20036;-58
2023/07/06 09:09:03;;;;;;;3.67;1.00;;;19.00;99.90;;;;;;5054741;28;20025;-59
2023/07/06 09:11:33;;;;;;;6.72;1.98;;;19.20;99.90;;;;;;5053329;28;20041;-58
2023/07/06 09:14:06;;;;;;;8.80;1.48;;;19.30;99.90;;;;;;5054865;28;20364;-56
2023/07/06 09:16:58;;;;;;;4.25;1.00;;;19.40;99.90;;;;;;5054743;28;20107;-57
2023/07/06 09:19:26;;;;;;;3.63;1.20;;;19.50;99.90;;;;;;5054550;28;20112;-56
2023/07/06 09:21:54;;;;;;;7.20;1.40;;;19.50;99.90;;;;;;5054774;28;20017;-58
2023/07/06 09:24:27;;;;;;;8.35;1.00;;;19.50;99.90;;;;;;5054464;28;20021;-55
2023/07/06 09:26:53;;;;;;;2.58;1.08;;;19.70;99.90;;;;;;5054561;28;20029;-57
2023/07/06 09:29:24;;;;;;;6.90;1.27;;;19.70;99.90;;;;;;5054370;28;20049;-59
2023/07/06 09:32:07;;;;;;;7.75;1.27;;;19.80;99.90;;;;;;5054601;28;20025;-58
2023/07/06 09:34:33;;;;;;;6.63;1.30;;;19.90;99.90;;;;;;5054255;28;20096;-60
2023/07/06 09:37:02;;;;;;;6.38;0.85;;;19.90;99.90;;;;;;5054420;28;20063;-59
2023/07/06 09:39:27;;;;;;;2.10;0.80;;;20.00;99.90;;;;;;5054347;28;20099;-59
2023/07/06 09:41:53;;;;;;;5.22;1.55;;;20.00;99.90;;;;;;5054452;28;20044;-57
2023/07/06 09:44:26;;;;;;;6.07;2.33;;;20.20;99.90;;;;;;5054190;28;20060;-58
2023/07/06 09:46:55;;;;;;;3.70;1.00;;;20.40;99.90;;;;;;5054148;28;20494;-58
2023/07/06 09:49:23;;;;;;;3.63;0.80;;;20.30;99.90;;;;;;5054047;28;20021;-54
2023/07/06 09:51:58;;;;;;;2.17;1.10;;;20.40;99.90;;;;;;5054146;28;20032;-59
2023/07/06 09:54:32;;;;;;;5.05;1.08;;;20.50;99.90;;;;;;5053950;28;20017;-60
2023/07/06 09:56:59;;;;;;;4.65;1.25;;;20.70;99.90;;;;;;5054317;28;20048;-61
2023/07/06 09:59:25;;;;;;;2.63;0.88;;;20.80;99.90;;;;;;5053810;28;20029;-58
2023/07/06 10:02:09;;;;;;;5.15;1.10;;;20.90;99.90;;;;;;5053956;28;20491;-58
2023/07/06 10:04:51;;;;;;;1.60;0.82;;;21.00;99.90;;;;;;5053841;28;20107;-59
2023/07/06 10:07:28;;;;;;;1.48;0.90;;;21.00;99.90;;;;;;5053710;28;20037;-58
2023/07/06 10:10:06;;;;;;;4.38;0.90;;;21.30;99.90;;;;;;5053159;28;20021;-59
2023/07/06 10:13:06;;;;;;;3.97;1.10;;;21.50;99.90;;;;;;5053854;28;20124;-60
2023/07/06 10:15:56;;;;;;;1.48;0.70;;;21.70;99.90;;;;;;5052445;28;20028;-57
2023/07/06 10:18:27;;;;;;;3.83;1.02;;;21.20;99.90;;;;;;5053479;28;20052;-57
2023/07/06 10:20:58;;;;;;;3.83;0.90;;;21.50;99.90;;;;;;5053576;28;20395;-60
2023/07/06 10:23:39;;;;;;;5.55;2.00;;;21.80;99.90;;;;;;5053426;28;20039;-60
2023/07/06 10:26:23;;;;;;;1.83;0.80;;;21.80;99.90;;;;;;5053560;28;20021;-57
2023/07/06 10:28:55;;;;;;;2.58;0.88;;;21.70;99.90;;;;;;5053766;28;20387;-57
2023/07/06 10:31:29;;;;;;;4.60;0.80;;;21.50;99.90;;;;;;5053433;28;20028;-56
2023/07/06 10:33:59;;;;;;;5.47;0.80;;;21.80;99.90;;;;;;5053396;28;20025;-56
2023/07/06 10:36:32;;;;;;;2.17;0.80;;;22.00;98.70;;;;;;5053675;28;20029;-59
2023/07/06 10:38:58;;;;;;;2.08;0.70;;;22.30;97.80;;;;;;5053361;28;20028;-58
2023/07/06 10:41:31;;;;;;;1.15;0.80;;;22.30;97.30;;;;;;5053249;28;20037;-55
2023/07/06 10:44:01;;;;;;;5.07;0.95;;;22.20;96.60;;;;;;5053443;28;20449;-58
2023/07/06 10:46:33;;;;;;;1.65;0.70;;;22.20;96.60;;;;;;5053294;28;20537;-58
2023/07/06 10:49:19;;;;;;;4.20;0.98;;;22.50;95.00;;;;;;5053029;28;20028;-56
2023/07/06 10:51:50;;;;;;;5.75;2.90;;;22.60;94.90;;;;;;5053407;28;20479;-60
2023/07/06 10:54:25;;;;;;;1.77;0.57;;;22.40;96.20;;;;;;5056323;28;20044;-60
2023/07/06 10:57:00;;;;;;;1.63;0.50;;;22.40;95.70;;;;;;5055804;28;20021;-59
2023/07/06 10:59:52;;;;;;;1.40;0.63;;;22.20;94.60;;;;;;5053592;28;20021;-60
2023/07/06 11:02:24;;;;;;;1.63;0.52;;;22.30;94.60;;;;;;5052927;28;20028;-60
2023/07/06 11:05:07;;;;;;;10.10;5.35;;;22.50;94.60;;;;;;5052898;28;20557;-59
2023/07/06 11:08:10;;;;;;;5.43;2.03;;;22.30;95.20;;;;;;5052579;28;20033;-60
2023/07/06 11:10:37;;;;;;;5.38;0.60;;;22.50;95.70;;;;;;5045588;28;20033;-58
2023/07/06 11:13:04;;;;;;;5.25;0.98;;;22.70;93.20;;;;;;5052696;28;20032;-58
2023/07/06 11:15:39;;;;;;;1.25;0.52;;;22.80;93.80;;;;;;5052559;28;20025;-58
2023/07/06 11:18:33;;;;;;;3.53;0.90;;;22.60;92.70;;;;;;5052384;28;20560;-58
2023/07/06 11:21:20;;;;;;;1.65;0.98;;;22.70;95.00;;;;;;5051774;28;20041;-58
2023/07/06 11:23:52;;;;;;;1.83;0.80;;;23.20;93.40;;;;;;5052286;28;20032;-60
2023/07/06 11:26:33;;;;;;;2.22;0.73;;;23.70;92.00;;;;;;5052287;28;20104;-60
2023/07/06 11:28:59;;;;;;;2.38;0.65;;;23.90;91.10;;;;;;5052255;28;20033;-59
2023/07/06 11:31:59;;;;;;;1.80;0.68;;;23.10;90.60;;;;;;5052281;28;20017;-60
2023/07/06 11:34:46;;;;;;;1.35;0.80;;;23.60;91.10;;;;;;5052174;28;20032;-60
2023/07/06 11:37:15;;;;;;;2.05;0.60;;;23.70;91.60;;;;;;5052309;28;20548;-59
2023/07/06 11:40:28;;;;;;;2.08;0.70;;;23.30;90.30;;;;;;5052341;28;20035;-60
2023/07/06 11:43:47;;;;;;;2.50;0.77;;;23.70;88.00;;;;;;5088907;27;20953;-59
2023/07/06 11:46:22;;;;;;;1.23;0.60;;;23.80;88.30;;;;;;5087734;28;20446;-58
2023/07/06 11:49:15;;;;;;;1.17;0.60;;;24.00;88.30;;;;;;5088721;28;20013;-57
2023/07/06 11:51:41;;;;;;;2.60;0.90;;;24.10;86.90;;;;;;5087487;28;20025;-56
2023/07/06 11:54:29;;;;;;;1.80;0.80;;;24.50;86.00;;;;;;5088710;28;20023;-57
2023/07/06 11:57:24;;;;;;;3.95;0.95;;;24.90;83.60;;;;;;5088873;28;20024;-58
2023/07/06 11:59:46;;;;;;;1.40;0.70;;;25.10;84.80;;;;;;5088370;28;20494;-59
2023/07/06 12:02:16;;;;;;;4.18;0.60;;;25.00;80.90;;;;;;5088508;28;20389;-60
2023/07/06 12:04:45;;;;;;;3.25;2.33;;;24.90;81.90;;;;;;5088415;28;20028;-58
2023/07/06 12:07:24;;;;;;;5.10;0.80;;;25.00;80.90;;;;;;5088281;28;20024;-54
2023/07/06 12:09:50;;;;;;;1.38;0.73;;;25.00;78.30;;;;;;5088518;28;20043;-57
2023/07/06 12:12:17;;;;;;;0.75;0.57;;;25.20;75.60;;;;;;5088366;28;20024;-57
2023/07/06 12:14:44;;;;;;;0.90;0.82;;;24.80;75.10;;;;;;5088559;28;20557;-56
2023/07/06 12:17:12;;;;;;;1.73;0.80;;;25.00;76.20;;;;;;5088290;28;20020;-55
2023/07/06 12:19:41;;;;;;;2.05;0.70;;;25.40;75.30;;;;;;5088055;28;20082;-55
2023/07/06 12:22:18;;;;;;;1.35;0.93;;;25.80;74.70;;;;;;5088225;28;20041;-61
2023/07/06 12:24:44;;;;;;;1.20;0.75;;;26.00;71.90;;;;;;5088218;28;20020;-56
2023/07/06 12:27:15;;;;;;;3.80;0.82;;;26.00;72.00;;;;;;5088109;28;20508;-53
2023/07/06 12:29:41;;;;;;;3.17;0.63;;;26.40;72.10;;;;;;5086693;28;20045;-57
2023/07/06 12:32:19;;;;;;;3.13;0.80;;;26.00;70.10;;;;;;5087990;28;20382;-56
2023/07/06 12:34:49;;;;;;;1.65;0.80;;;25.00;73.10;;;;;;5087931;28;20509;-58
2023/07/06 12:37:16;;;;;;;2.38;0.95;;;25.20;74.40;;;;;;5087760;28;20034;-53
2023/07/06 12:39:44;;;;;;;1.85;0.90;;;24.80;74.30;;;;;;5087674;28;20024;-61
2023/07/06 12:42:15;;;;;;;2.70;0.80;;;24.70;75.20;;;;;;5087638;28;20563;-56
2023/07/06 12:44:43;;;;;;;2.65;0.90;;;24.80;74.80;;;;;;5087624;28;20024;-58
2023/07/06 12:47:24;;;;;;;1.63;0.77;;;25.00;74.60;;;;;;5087604;28;20048;-54
2023/07/06 12:49:52;;;;;;;3.22;1.08;;;25.40;74.20;;;;;;5087637;28;20024;-58
2023/07/06 12:52:21;;;;;;;4.55;0.80;;;25.60;73.50;;;;;;5085972;28;20548;-59
2023/07/06 12:54:54;;;;;;;2.83;0.75;;;25.60;73.10;;;;;;5073578;28;20063;-60
2023/07/06 12:57:29;;;;;;;1.60;0.68;;;26.20;72.10;;;;;;5074038;28;20169;-57
2023/07/06 12:59:58;;;;;;;0.80;0.57;;;25.40;70.90;;;;;;5073964;28;20028;-58
2023/07/06 13:02:29;;;;;;;3.47;0.90;;;25.40;71.80;;;;;;5073887;28;20559;-59